createdAt,value
2019-06-01T00:00:19.744Z,11.90
2019-06-01T00:02:52.573Z,12.00
2019-06-01T00:05:16.442Z,12.10
2019-06-01T00:07:43.052Z,12.10
2019-06-01T00:10:09.829Z,11.90
2019-06-01T00:12:36.385Z,11.80
2019-06-01T00:15:06.300Z,11.80
2019-06-01T00:17:33.035Z,11.70
2019-06-01T00:19:59.680Z,11.70
2019-06-01T00:22:26.241Z,11.70
2019-06-01T00:24:52.813Z,11.80
2019-06-01T00:27:19.498Z,11.90
2019-06-01T00:29:46.790Z,11.80
2019-06-01T00:32:13.762Z,11.80
2019-06-01T00:34:41.265Z,11.70
2019-06-01T00:37:08.085Z,11.40
2019-06-01T00:39:34.721Z,11.30
2019-06-01T00:42:01.397Z,11.50
2019-06-01T00:44:28.081Z,11.60
2019-06-01T00:46:54.631Z,11.30
2019-06-01T00:49:21.160Z,11.40
2019-06-01T00:51:49.004Z,11.30
2019-06-01T00:54:15.705Z,11.10
2019-06-01T00:56:43.470Z,11.00
2019-06-01T00:59:10.128Z,10.70
2019-06-01T01:01:36.657Z,10.80
2019-06-01T01:04:03.352Z,10.70
2019-06-01T01:06:29.986Z,10.70
2019-06-01T01:08:56.764Z,11.00
2019-06-01T01:11:23.444Z,11.10
2019-06-01T01:13:51.327Z,11.00
2019-06-01T01:16:17.950Z,10.90
2019-06-01T01:18:45.595Z,11.00
2019-06-01T01:21:12.357Z,10.90
2019-06-01T01:23:38.924Z,11.00
2019-06-01T01:26:05.505Z,11.20
2019-06-01T01:28:32.054Z,11.20
2019-06-01T01:31:11.773Z,11.10
2019-06-01T01:33:26.940Z,11.20
2019-06-01T01:35:54.196Z,11.10
2019-06-01T01:38:20.962Z,11.00
2019-06-01T01:40:47.956Z,11.00
2019-06-01T01:43:14.675Z,11.00
2019-06-01T01:45:41.540Z,11.10
2019-06-01T01:48:08.085Z,11.10
2019-06-01T01:50:34.734Z,11.00
2019-06-01T01:53:01.286Z,10.80
2019-06-01T01:55:27.816Z,10.70
2019-06-01T01:57:55.393Z,10.70
2019-06-01T02:00:44.601Z,10.70
2019-06-01T02:03:11.870Z,10.70
2019-06-01T02:05:38.504Z,10.70
2019-06-01T02:08:05.792Z,10.80
2019-06-01T02:10:32.779Z,10.50
2019-06-01T02:12:59.653Z,10.60
2019-06-01T02:15:26.479Z,10.70
2019-06-01T02:17:53.924Z,10.50
2019-06-01T02:20:20.666Z,10.50
2019-06-01T02:22:47.235Z,10.60
2019-06-01T02:25:13.986Z,10.40
2019-06-01T02:27:40.535Z,10.30
2019-06-01T02:30:07.381Z,10.20
2019-06-01T02:32:33.955Z,10.30
2019-06-01T02:35:02.376Z,10.30
2019-06-01T02:37:28.912Z,10.30
2019-06-01T02:39:56.757Z,10.50
2019-06-01T02:42:23.395Z,10.40
2019-06-01T02:44:49.934Z,10.20
2019-06-01T02:47:16.505Z,10.40
2019-06-01T02:49:43.136Z,10.30
2019-06-01T02:52:09.694Z,10.30
2019-06-01T02:54:36.257Z,10.10
2019-06-01T02:57:03.069Z,10.10
2019-06-01T02:59:30.631Z,10.00
2019-06-01T03:02:03.364Z,10.00
2019-06-01T03:04:25.845Z,10.00
2019-06-01T03:06:53.285Z,9.90
2019-06-01T03:09:22.040Z,9.80
2019-06-01T03:11:50.339Z,10.20
2019-06-01T03:14:18.612Z,10.20
2019-06-01T03:16:48.977Z,10.40
2019-06-01T03:19:17.901Z,10.40
2019-06-01T03:21:47.858Z,10.30
2019-06-01T03:24:14.422Z,10.20
2019-06-01T03:26:43.492Z,10.10
2019-06-01T03:29:16.201Z,10.20
2019-06-01T03:31:43.609Z,10.20
2019-06-01T03:34:11.446Z,9.90
2019-06-01T03:36:38.520Z,9.90
2019-06-01T03:39:06.067Z,10.10
2019-06-01T03:41:33.087Z,10.20
2019-06-01T03:44:00.452Z,10.20
2019-06-01T03:46:28.076Z,10.20
2019-06-01T03:48:54.633Z,10.20
2019-06-01T03:51:21.202Z,10.10
2019-06-01T03:53:47.747Z,10.20
2019-06-01T03:56:14.307Z,10.30
2019-06-01T03:58:40.870Z,10.30
2019-06-01T04:01:07.435Z,10.20
2019-06-01T04:03:34.000Z,10.20
2019-06-01T04:06:01.195Z,10.30
2019-06-01T04:08:29.100Z,10.20
2019-06-01T04:10:55.642Z,10.20
2019-06-01T04:13:22.191Z,10.30
2019-06-01T04:15:48.975Z,10.30
2019-06-01T04:18:15.531Z,10.20
2019-06-01T04:20:42.091Z,10.10
2019-06-01T04:23:08.739Z,10.30
2019-06-01T04:25:35.302Z,10.30
2019-06-01T04:28:02.235Z,10.50
2019-06-01T04:30:29.832Z,10.60
2019-06-01T04:32:56.392Z,10.60
2019-06-01T04:35:23.068Z,10.60
2019-06-01T04:37:49.686Z,10.80
2019-06-01T04:40:16.243Z,10.90
2019-06-01T04:42:43.394Z,10.80
2019-06-01T04:45:10.871Z,10.80
2019-06-01T04:47:38.548Z,10.90
2019-06-01T04:50:06.705Z,10.90
2019-06-01T04:52:33.339Z,10.90
2019-06-01T04:54:59.990Z,11.00
2019-06-01T04:57:26.531Z,11.00
2019-06-01T04:59:53.108Z,11.10
2019-06-01T05:02:19.658Z,11.30
2019-06-01T05:04:46.316Z,11.50
2019-06-01T05:07:13.450Z,11.70
2019-06-01T05:09:40.114Z,11.80
2019-06-01T05:12:07.479Z,12.00
2019-06-01T05:14:34.534Z,12.20
2019-06-01T05:17:01.571Z,12.20
2019-06-01T05:19:28.267Z,12.10
2019-06-01T05:21:54.789Z,12.20
2019-06-01T05:24:21.340Z,12.40
2019-06-01T05:26:47.889Z,12.50
2019-06-01T05:29:15.647Z,12.50
2019-06-01T05:31:42.490Z,12.50
2019-06-01T05:34:09.694Z,12.50
2019-06-01T05:36:36.415Z,12.60
2019-06-01T05:39:05.698Z,12.60
2019-06-01T05:41:32.759Z,12.70
2019-06-01T05:44:00.628Z,12.70
2019-06-01T05:46:28.405Z,12.90
2019-06-01T05:48:55.006Z,13.00
2019-06-01T05:51:22.974Z,13.20
2019-06-01T05:53:49.643Z,13.40
2019-06-01T05:56:16.859Z,13.60
2019-06-01T05:58:43.626Z,13.40
2019-06-01T06:01:10.398Z,13.70
2019-06-01T06:03:40.397Z,14.20
2019-06-01T06:06:05.367Z,14.50
2019-06-01T06:08:31.949Z,14.40
2019-06-01T06:10:58.547Z,14.40
2019-06-01T06:13:25.226Z,14.40
2019-06-01T06:15:51.807Z,14.50
2019-06-01T06:18:18.510Z,14.70
2019-06-01T06:20:45.065Z,14.60
2019-06-01T06:23:12.242Z,14.50
2019-06-01T06:25:41.056Z,14.60
2019-06-01T06:28:07.281Z,14.60
2019-06-01T06:30:33.843Z,14.70
2019-06-01T06:33:00.489Z,14.90
2019-06-01T06:35:27.031Z,14.80
2019-06-01T06:37:53.703Z,14.90
2019-06-01T06:40:22.146Z,15.00
2019-06-01T06:42:48.827Z,15.20
2019-06-01T06:45:16.580Z,15.20
2019-06-01T06:47:43.259Z,15.40
2019-06-01T06:50:14.900Z,15.50
2019-06-01T06:52:42.007Z,15.20
2019-06-01T06:55:08.675Z,15.30
2019-06-01T06:57:35.224Z,15.30
2019-06-01T07:00:04.261Z,15.40
2019-06-01T07:02:30.910Z,15.30
2019-06-01T07:04:57.439Z,15.40
2019-06-01T07:07:24.004Z,15.40
2019-06-01T07:09:50.586Z,15.50
2019-06-01T07:12:17.138Z,15.40
2019-06-01T07:14:43.709Z,15.50
2019-06-01T07:17:10.295Z,15.70
2019-06-01T07:19:36.831Z,15.80
2019-06-01T07:22:03.490Z,15.70
2019-06-01T07:24:30.035Z,15.70
2019-06-01T07:26:56.643Z,15.80
2019-06-01T07:29:24.193Z,16.00
2019-06-01T07:31:50.979Z,16.10
2019-06-01T07:34:30.944Z,16.10
2019-06-01T07:36:45.898Z,16.20
2019-06-01T07:39:12.417Z,16.40
2019-06-01T07:41:39.006Z,16.50
2019-06-01T07:44:05.652Z,16.60
2019-06-01T07:46:33.249Z,16.70
2019-06-01T07:48:59.969Z,16.80
2019-06-01T07:51:27.417Z,16.90
2019-06-01T07:53:54.501Z,17.10
2019-06-01T07:56:22.498Z,17.30
2019-06-01T07:58:49.458Z,17.40
2019-06-01T08:01:16.021Z,17.70
2019-06-01T08:03:42.578Z,18.00
2019-06-01T08:06:09.105Z,18.20
2019-06-01T08:08:35.683Z,17.90
2019-06-01T08:11:02.326Z,17.70
2019-06-01T08:13:33.136Z,17.70
2019-06-01T08:15:57.250Z,17.90
2019-06-01T08:18:24.306Z,18.00
2019-06-01T08:20:50.851Z,18.20
2019-06-01T08:23:17.426Z,18.40
2019-06-01T08:25:44.090Z,18.40
2019-06-01T08:28:10.600Z,18.30
2019-06-01T08:30:37.198Z,18.60
2019-06-01T08:33:03.834Z,18.90
2019-06-01T08:35:31.177Z,19.10
2019-06-01T08:37:57.945Z,19.00
2019-06-01T08:40:25.238Z,19.10
2019-06-01T08:42:52.137Z,19.40
2019-06-01T08:45:18.903Z,19.40
2019-06-01T08:47:53.154Z,19.60
2019-06-01T08:50:19.842Z,19.90
2019-06-01T08:52:47.215Z,20.60
2019-06-01T08:55:13.957Z,20.10
2019-06-01T08:57:40.612Z,20.00
2019-06-01T09:00:07.845Z,20.10
2019-06-01T09:02:34.948Z,20.40
2019-06-01T09:05:04.382Z,20.80
2019-06-01T09:07:31.104Z,20.80
2019-06-01T09:09:57.827Z,20.90
2019-06-01T09:12:25.115Z,20.80
2019-06-01T09:14:52.605Z,21.00
2019-06-01T09:17:19.181Z,21.50
2019-06-01T09:19:46.096Z,21.70
2019-06-01T09:22:12.654Z,21.90
2019-06-01T09:24:39.318Z,22.00
2019-06-01T09:27:05.902Z,22.00
2019-06-01T09:29:32.423Z,22.20
2019-06-01T09:31:58.954Z,22.50
2019-06-01T09:34:26.165Z,22.70
2019-06-01T09:36:55.481Z,22.70
2019-06-01T09:39:21.327Z,22.80
2019-06-01T09:41:47.994Z,23.00
2019-06-01T09:44:14.539Z,23.30
2019-06-01T09:46:41.103Z,23.30
2019-06-01T09:49:07.695Z,23.20
2019-06-01T09:51:35.474Z,23.40
2019-06-01T09:54:02.808Z,23.40
2019-06-01T09:56:31.728Z,23.50
2019-06-01T09:58:58.781Z,23.60
2019-06-01T10:01:25.452Z,23.50
2019-06-01T10:03:52.115Z,23.50
2019-06-01T10:06:18.721Z,23.50
2019-06-01T10:08:45.260Z,23.70
2019-06-01T10:11:11.873Z,23.60
2019-06-01T10:13:38.520Z,23.50
2019-06-01T10:16:06.358Z,23.50
2019-06-01T10:18:32.953Z,23.60
2019-06-01T10:20:59.487Z,23.80
2019-06-01T10:23:26.038Z,24.00
2019-06-01T10:25:53.119Z,24.60
2019-06-01T10:28:19.663Z,24.50
2019-06-01T10:30:46.323Z,24.50
2019-06-01T10:33:13.096Z,24.40
2019-06-01T10:35:39.651Z,24.20
2019-06-01T10:38:06.330Z,24.50
2019-06-01T10:40:33.407Z,24.50
2019-06-01T10:43:00.314Z,24.20
2019-06-01T10:45:27.016Z,23.80
2019-06-01T10:47:53.593Z,23.70
2019-06-01T10:50:20.100Z,23.80
2019-06-01T10:52:46.652Z,23.80
2019-06-01T10:55:13.534Z,24.30
2019-06-01T10:57:40.610Z,24.50
2019-06-01T11:00:09.488Z,24.70
2019-06-01T11:02:36.632Z,24.90
2019-06-01T11:05:06.718Z,25.20
2019-06-01T11:07:33.275Z,25.30
2019-06-01T11:09:59.844Z,25.40
2019-06-01T11:12:26.378Z,25.40
2019-06-01T11:14:52.932Z,25.70
2019-06-01T11:17:19.498Z,25.40
2019-06-01T11:19:46.137Z,25.20
2019-06-01T11:22:12.677Z,25.20
2019-06-01T11:24:39.530Z,25.30
2019-06-01T11:27:06.282Z,25.20
2019-06-01T11:29:34.654Z,25.50
2019-06-01T11:32:01.176Z,25.70
2019-06-01T11:34:27.706Z,26.00
2019-06-01T11:37:05.059Z,26.00
2019-06-01T11:39:22.795Z,26.00
2019-06-01T11:41:49.355Z,26.10
2019-06-01T11:44:15.913Z,26.10
2019-06-01T11:46:42.994Z,26.00
2019-06-01T11:49:09.609Z,26.00
2019-06-01T11:51:36.963Z,26.00
2019-06-01T11:54:04.840Z,26.40
2019-06-01T11:56:31.415Z,26.40
2019-06-01T11:58:57.987Z,26.50
2019-06-01T12:01:24.546Z,26.60
2019-06-01T12:03:51.225Z,26.80
2019-06-01T12:06:17.903Z,26.50
2019-06-01T12:08:44.544Z,26.30
2019-06-01T12:11:11.082Z,26.40
2019-06-01T12:13:38.118Z,26.50
2019-06-01T12:16:04.838Z,26.30
2019-06-01T12:18:31.401Z,26.40
2019-06-01T12:20:58.052Z,26.30
2019-06-01T12:23:24.816Z,26.10
2019-06-01T12:25:51.372Z,25.60
2019-06-01T12:28:17.945Z,25.50
2019-06-01T12:30:45.731Z,26.20
2019-06-01T12:33:12.751Z,26.90
2019-06-01T12:35:39.874Z,27.20
2019-06-01T12:38:07.223Z,26.70
2019-06-01T12:40:33.863Z,26.30
2019-06-01T12:43:00.410Z,26.10
2019-06-01T12:45:27.096Z,26.40
2019-06-01T12:47:58.122Z,26.70
2019-06-01T12:50:22.542Z,27.00
2019-06-01T12:52:49.320Z,27.50
2019-06-01T12:55:15.926Z,27.20
2019-06-01T12:57:42.941Z,27.10
2019-06-01T13:00:10.221Z,27.20
2019-06-01T13:02:36.778Z,27.20
2019-06-01T13:05:06.549Z,27.30
2019-06-01T13:07:33.316Z,27.40
2019-06-01T13:09:59.920Z,27.40
2019-06-01T13:12:26.555Z,27.60
2019-06-01T13:14:53.146Z,27.80
2019-06-01T13:17:19.719Z,28.00
2019-06-01T13:19:47.355Z,28.10
2019-06-01T13:22:14.226Z,28.10
2019-06-01T13:24:41.531Z,28.70
2019-06-01T13:27:08.410Z,29.10
2019-06-01T13:29:34.973Z,29.20
2019-06-01T13:32:01.529Z,29.40
2019-06-01T13:34:28.078Z,29.60
2019-06-01T13:36:56.050Z,29.50
2019-06-01T13:39:22.588Z,29.50
2019-06-01T13:41:49.582Z,29.80
2019-06-01T13:44:16.200Z,29.90
2019-06-01T13:46:43.460Z,30.10
2019-06-01T13:49:10.176Z,30.10
2019-06-01T13:51:36.725Z,30.50
2019-06-01T13:54:03.486Z,30.50
2019-06-01T13:56:30.064Z,30.70
2019-06-01T13:58:56.666Z,30.20
2019-06-01T14:01:23.363Z,29.90
2019-06-01T14:03:52.057Z,30.00
2019-06-01T14:06:18.475Z,30.00
2019-06-01T14:08:45.069Z,29.50
2019-06-01T14:11:11.656Z,29.80
2019-06-01T14:13:38.202Z,29.20
2019-06-01T14:16:04.771Z,28.80
2019-06-01T14:18:31.402Z,28.60
2019-06-01T14:20:58.195Z,28.10
2019-06-01T14:23:24.729Z,27.60
2019-06-01T14:25:52.187Z,27.20
2019-06-01T14:28:19.141Z,27.00
2019-06-01T14:30:46.177Z,26.80
2019-06-01T14:33:12.850Z,26.60
2019-06-01T14:35:39.417Z,26.20
2019-06-01T14:38:05.973Z,26.00
2019-06-01T14:40:32.529Z,25.80
2019-06-01T14:42:59.285Z,25.80
2019-06-01T14:45:26.042Z,25.20
2019-06-01T14:47:53.491Z,25.20
2019-06-01T14:50:20.197Z,25.60
2019-06-01T14:52:47.650Z,26.80
2019-06-01T14:55:14.602Z,28.30
2019-06-01T14:57:41.171Z,29.00
2019-06-01T15:00:09.551Z,30.90
2019-06-01T15:02:36.324Z,31.60
2019-06-01T15:05:06.099Z,32.00
2019-06-01T15:07:32.654Z,32.40
2019-06-01T15:09:59.220Z,32.90
2019-06-01T15:12:25.810Z,32.30
2019-06-01T15:14:52.975Z,32.50
2019-06-01T15:17:19.856Z,32.10
2019-06-01T15:19:46.428Z,30.50
2019-06-01T15:22:12.981Z,30.10
2019-06-01T15:24:39.615Z,29.00
2019-06-01T15:27:06.178Z,28.20
2019-06-01T15:29:32.759Z,27.10
2019-06-01T15:32:00.136Z,26.90
2019-06-01T15:34:26.972Z,27.00
2019-06-01T15:36:53.685Z,26.30
2019-06-01T15:39:24.710Z,26.00
2019-06-01T15:41:48.836Z,25.70
2019-06-01T15:44:15.408Z,25.60
2019-06-01T15:46:41.976Z,25.70
2019-06-01T15:49:09.082Z,25.40
2019-06-01T15:51:35.658Z,25.40
2019-06-01T15:54:03.229Z,25.30
2019-06-01T15:56:30.016Z,25.30
2019-06-01T15:58:58.152Z,25.10
2019-06-01T16:01:24.898Z,24.90
2019-06-01T16:03:53.194Z,25.20
2019-06-01T16:06:19.810Z,25.00
2019-06-01T16:08:47.167Z,24.70
2019-06-01T16:11:14.831Z,24.50
2019-06-01T16:13:41.486Z,24.20
2019-06-01T16:16:08.071Z,24.00
2019-06-01T16:18:34.701Z,23.90
2019-06-01T16:21:02.272Z,23.80
2019-06-01T16:23:29.065Z,23.70
2019-06-01T16:26:07.259Z,23.80
2019-06-01T16:28:24.012Z,23.80
2019-06-01T16:30:50.589Z,23.80
2019-06-01T16:33:17.387Z,23.90
2019-06-01T16:35:44.064Z,24.20
2019-06-01T16:38:10.709Z,24.70
2019-06-01T16:40:37.401Z,24.80
2019-06-01T16:43:05.727Z,25.10
2019-06-01T16:45:33.988Z,25.00
2019-06-01T16:48:01.633Z,24.90
2019-06-01T16:50:28.431Z,24.70
2019-06-01T16:52:55.873Z,24.70
2019-06-01T16:55:22.657Z,24.40
2019-06-01T16:57:49.323Z,24.10
2019-06-01T17:00:16.435Z,24.10
2019-06-01T17:02:43.221Z,24.10
2019-06-01T17:05:11.091Z,24.00
2019-06-01T17:07:39.979Z,24.00
2019-06-01T17:10:23.919Z,23.80
2019-06-01T17:12:36.974Z,23.50
2019-06-01T17:15:07.127Z,23.10
2019-06-01T17:17:34.184Z,22.90
2019-06-01T17:20:05.302Z,22.70
2019-06-01T17:22:34.353Z,22.60
2019-06-01T17:25:01.827Z,22.80
2019-06-01T17:27:28.937Z,22.80
2019-06-01T17:29:58.087Z,22.60
2019-06-01T17:32:26.769Z,22.50
2019-06-01T17:34:54.567Z,22.30
2019-06-01T17:37:21.248Z,22.20
2019-06-01T17:39:49.112Z,22.30
2019-06-01T17:42:17.305Z,22.20
2019-06-01T17:44:46.048Z,22.20
2019-06-01T17:47:12.626Z,22.00
2019-06-01T17:49:39.341Z,21.90
2019-06-01T17:52:06.126Z,21.70
2019-06-01T17:54:32.769Z,21.60
2019-06-01T17:56:59.331Z,21.60
2019-06-01T17:59:26.098Z,21.60
2019-06-01T18:01:52.743Z,21.40
2019-06-01T18:04:19.468Z,21.30
2019-06-01T18:06:47.350Z,21.00
2019-06-01T18:09:14.144Z,20.80
2019-06-01T18:11:41.290Z,20.70
2019-06-01T18:14:10.247Z,20.90
2019-06-01T18:16:37.186Z,20.90
2019-06-01T18:19:04.166Z,20.70
2019-06-01T18:21:33.425Z,20.40
2019-06-01T18:24:12.811Z,20.30
2019-06-01T18:26:39.669Z,20.30
2019-06-01T18:29:06.620Z,20.30
2019-06-01T18:31:33.245Z,20.30
2019-06-01T18:34:00.128Z,20.30
2019-06-01T18:36:26.710Z,20.10
2019-06-01T18:38:53.265Z,20.20
2019-06-01T18:41:20.297Z,20.10
2019-06-01T18:43:47.150Z,20.00
2019-06-01T18:46:14.423Z,19.80
2019-06-01T18:48:45.940Z,19.80
2019-06-01T18:51:14.789Z,19.90
2019-06-01T18:53:41.695Z,19.80
2019-06-01T18:56:10.165Z,19.80
2019-06-01T18:58:37.127Z,19.50
2019-06-01T19:01:04.753Z,19.50
2019-06-01T19:03:31.423Z,19.40
2019-06-01T19:06:21.956Z,19.30
2019-06-01T19:08:52.433Z,19.30
2019-06-01T19:11:34.731Z,19.30
2019-06-01T19:33:42.512Z,19.10
2019-06-01T19:36:21.580Z,18.80
2019-06-01T19:38:49.856Z,18.70
2019-06-01T19:50:34.677Z,18.20
2019-06-01T19:53:01.803Z,18.30
2019-06-01T19:55:28.816Z,18.20
2019-06-01T19:57:55.678Z,18.20
2019-06-01T20:00:22.507Z,18.20
2019-06-01T20:02:49.419Z,18.20
2019-06-01T20:05:16.690Z,18.30
2019-06-01T20:07:43.534Z,18.30
2019-06-01T20:10:12.341Z,18.30
2019-06-01T20:12:44.428Z,18.30
2019-06-01T20:15:17.457Z,18.10
2019-06-01T20:17:45.498Z,18.10
2019-06-01T20:20:12.738Z,17.80
2019-06-01T20:25:31.600Z,18.00
2019-06-01T20:28:05.169Z,18.20
2019-06-01T20:57:43.931Z,17.50
2019-06-01T21:00:19.925Z,17.60
2019-06-01T21:02:47.673Z,17.30
2019-06-01T21:05:19.870Z,17.00
2019-06-01T21:07:48.843Z,16.90
2019-06-01T21:10:20.455Z,16.70
2019-06-01T21:12:50.711Z,16.50
2019-06-01T21:15:17.634Z,16.40
2019-06-01T21:17:51.443Z,16.50
2019-06-01T21:20:28.492Z,16.30
2019-06-01T21:22:52.077Z,16.40
2019-06-01T21:25:20.935Z,16.50
2019-06-01T21:27:48.327Z,16.50
2019-06-01T21:30:18.780Z,16.40
2019-06-01T21:32:46.522Z,16.40
2019-06-01T21:35:15.138Z,16.40
2019-06-01T21:37:42.681Z,16.30
2019-06-01T21:40:26.437Z,16.50
2019-06-01T21:43:06.834Z,16.50
2019-06-01T21:45:24.266Z,16.50
2019-06-01T21:47:52.457Z,16.30
2019-06-01T21:50:22.124Z,16.00
2019-06-01T21:52:50.129Z,16.00
2019-06-01T21:55:20.624Z,16.10
2019-06-01T21:57:52.610Z,16.10
2019-06-01T22:00:46.344Z,16.30
2019-06-01T22:09:21.822Z,16.40
2019-06-01T22:11:54.496Z,16.60
2019-06-01T22:14:26.029Z,16.60
2019-06-01T22:16:57.690Z,16.60
2019-06-01T22:19:38.767Z,16.60
2019-06-01T22:24:54.759Z,16.70
2019-06-01T22:33:57.312Z,16.50
2019-06-01T22:36:25.334Z,16.20
2019-06-01T22:38:58.837Z,16.10
2019-06-01T22:41:26.282Z,16.30
2019-06-01T22:43:55.496Z,16.40
2019-06-01T22:46:22.728Z,16.60
2019-06-01T22:48:50.088Z,16.60
2019-06-01T22:51:16.687Z,16.60
2019-06-01T22:53:44.623Z,16.40
2019-06-01T22:56:12.043Z,16.20
2019-06-01T22:58:39.103Z,16.20
2019-06-01T23:01:06.211Z,16.30
2019-06-01T23:03:34.462Z,16.30
2019-06-01T23:06:04.009Z,16.20
2019-06-01T23:08:31.958Z,16.30
2019-06-01T23:10:58.861Z,16.30
2019-06-01T23:13:26.210Z,16.10
2019-06-01T23:15:53.176Z,15.80
2019-06-01T23:18:19.954Z,15.90
2019-06-01T23:20:46.753Z,15.90
2019-06-01T23:23:13.555Z,16.00
2019-06-01T23:25:40.420Z,15.90
2019-06-01T23:28:07.180Z,15.80
2019-06-01T23:30:34.106Z,15.80
2019-06-01T23:33:00.837Z,15.80
2019-06-01T23:35:28.524Z,15.80
2019-06-01T23:37:55.150Z,15.60
2019-06-01T23:40:22.442Z,15.50
2019-06-01T23:42:49.269Z,15.40
2019-06-01T23:45:32.980Z,15.50
2019-06-01T23:47:59.817Z,15.40
2019-06-01T23:50:27.167Z,15.30
2019-06-01T23:52:54.071Z,15.10
2019-06-01T23:55:20.720Z,15.20
2019-06-01T23:57:48.036Z,15.10
